Time;durP1;ratioP1;P1;durP2;ratioP2;P2;SDS_P1;SDS_P2;PMS_P1;PMS_P2;Temp;Humidity;BMP_temperature;BMP_pressure;BME280_temperature;BME280_humidity;BME280_pressure;Samples;Min_cycle;Max_cycle;Signal;HPM_P1;HPM_P2
2021/09/01 05:48:44;;;;;;;4.47;2.40;;;;;;;13.73;96.89;97454.27;1887430;76;22358;-60
2021/09/01 05:51:14;;;;;;;4.60;2.20;;;;;;;13.70;96.48;97452.25;1815512;77;20970;-60
2021/09/01 05:53:42;;;;;;;2.42;2.10;;;;;;;13.76;96.30;97455.53;1832083;77;21243;-60
2021/09/01 05:56:09;;;;;;;2.17;1.70;;;;;;;13.81;95.99;97451.86;1822549;78;20866;-60
2021/09/01 05:58:38;;;;;;;4.05;2.70;;;;;;;13.86;95.74;97454.38;1841047;77;21418;-58
2021/09/01 06:01:06;;;;;;;5.45;2.27;;;;;;;13.94;95.55;97462.98;1843991;77;20928;-60
2021/09/01 06:03:37;;;;;;;3.75;2.50;;;;;;;14.01;95.29;97461.92;1842930;77;20962;-59
2021/09/01 06:06:05;;;;;;;4.40;2.58;;;;;;;14.05;95.00;97462.84;1838749;77;21103;-60
2021/09/01 06:08:34;;;;;;;2.72;2.37;;;;;;;14.10;94.82;97461.31;1845677;77;20948;-59
2021/09/01 06:11:04;;;;;;;2.33;2.12;;;;;;;14.20;94.83;97459.59;1837132;77;21002;-59
2021/09/01 06:13:33;;;;;;;3.60;2.15;;;;;;;14.33;94.51;97458.59;1839972;77;20972;-61
2021/09/01 06:16:00;;;;;;;4.47;2.60;;;;;;;14.44;93.95;97461.70;1822332;78;20862;-60
2021/09/01 06:18:27;;;;;;;5.10;3.20;;;;;;;14.55;93.60;97470.42;1822377;78;21087;-59
2021/09/01 06:20:55;;;;;;;2.92;2.20;;;;;;;14.64;93.23;97468.45;1851163;77;20937;-59
2021/09/01 06:23:22;;;;;;;4.17;2.02;;;;;;;14.75;92.75;97476.36;1856184;77;20899;-60
2021/09/01 06:25:49;;;;;;;4.55;2.30;;;;;;;14.85;92.28;97473.27;1855821;77;20876;-58
2021/09/01 06:28:19;;;;;;;3.08;2.10;;;;;;;14.92;91.96;97473.53;1843934;76;20966;-61
2021/09/01 06:30:46;;;;;;;1.75;1.62;;;;;;;15.10;91.54;97476.09;1824864;77;21895;-59
2021/09/01 06:33:13;;;;;;;2.05;1.85;;;;;;;15.32;91.12;97475.70;1842362;77;21445;-60
2021/09/01 06:35:41;;;;;;;3.83;2.02;;;;;;;15.51;90.38;97483.55;1841402;77;21000;-60
2021/09/01 06:38:08;;;;;;;3.60;2.12;;;;;;;15.74;90.12;97486.63;1833706;77;20958;-61
2021/09/01 06:40:36;;;;;;;2.20;2.00;;;;;;;15.97;89.62;97493.75;1848543;77;21427;-60
2021/09/01 06:43:03;;;;;;;3.22;2.30;;;;;;;16.03;88.35;97486.99;1771867;80;21104;-61
2021/09/01 06:45:31;;;;;;;2.72;2.30;;;;;;;15.97;87.44;97489.11;1766347;79;20936;-61
2021/09/01 06:47:59;;;;;;;2.77;2.42;;;;;;;15.91;86.92;97491.83;1784351;79;20882;-58
2021/09/01 06:50:27;;;;;;;3.15;2.40;;;;;;;15.91;86.21;97493.17;1787077;78;21046;-59
2021/09/01 06:52:54;;;;;;;4.87;2.08;;;;;;;15.92;86.06;97498.02;1767065;80;21486;-61
2021/09/01 06:55:22;;;;;;;3.65;2.47;;;;;;;15.94;85.94;97500.61;1742788;81;21142;-59
2021/09/01 06:57:51;;;;;;;3.42;2.27;;;;;;;16.00;85.47;97501.16;1786362;80;21333;-61
2021/09/01 07:00:21;;;;;;;2.75;2.25;;;;;;;15.97;84.98;97502.63;1792684;79;20926;-58
2021/09/01 07:02:49;;;;;;;2.83;2.20;;;;;;;15.91;84.56;97501.28;1795865;79;21423;-59
2021/09/01 07:05:18;;;;;;;5.05;2.05;;;;;;;15.92;84.28;97501.48;1790068;78;21065;-60
2021/09/01 07:07:46;;;;;;;2.75;2.27;;;;;;;15.95;84.10;97504.88;1807913;79;22045;-61
2021/09/01 07:10:13;;;;;;;1.95;1.70;;;;;;;15.95;83.43;97512.18;1791617;78;20843;-58
2021/09/01 07:12:40;;;;;;;3.40;2.30;;;;;;;15.93;83.18;97504.98;1785323;79;20902;-59
2021/09/01 07:15:08;;;;;;;4.37;2.47;;;;;;;15.93;83.28;97512.53;1785779;80;20883;-60
2021/09/01 07:17:39;;;;;;;3.27;2.27;;;;;;;15.97;83.32;97518.83;1785776;80;20933;-58
2021/09/01 07:20:08;;;;;;;3.10;1.80;;;;;;;15.94;83.45;97521.42;1792520;79;21121;-62
2021/09/01 07:22:35;;;;;;;2.15;1.72;;;;;;;15.89;83.11;97524.34;1817496;79;20928;-59
2021/09/01 07:25:08;;;;;;;2.60;2.08;;;;;;;15.86;83.03;97529.84;1788520;79;21007;-61
2021/09/01 07:27:35;;;;;;;2.00;1.80;;;;;;;15.82;83.16;97524.89;1814302;79;20963;-59
2021/09/01 07:30:05;;;;;;;3.08;2.08;;;;;;;15.82;83.21;97532.20;1808156;79;20927;-61
2021/09/01 07:32:33;;;;;;;4.60;2.30;;;;;;;15.82;83.48;97533.00;1818263;79;21135;-58
2021/09/01 07:35:13;;;;;;;2.50;2.10;;;;;;;15.79;83.26;97530.16;1817806;79;21446;-61
2021/09/01 07:37:47;;;;;;;5.90;2.12;;;;;;;15.79;83.33;97531.52;1818035;79;20895;-59
2021/09/01 07:40:16;;;;;;;3.65;1.80;;;;;;;15.78;83.50;97534.77;1817661;79;20990;-58
2021/09/01 07:42:48;;;;;;;2.17;1.98;;;;;;;15.74;83.49;97533.87;1817014;78;21030;-59
2021/09/01 07:45:16;;;;;;;2.40;2.02;;;;;;;15.67;83.15;97537.13;1817521;79;21114;-57
2021/09/01 07:47:53;;;;;;;4.72;2.10;;;;;;;15.71;83.34;97537.23;1803757;79;21083;-59
2021/09/01 07:50:23;;;;;;;6.12;2.52;;;;;;;15.74;83.61;97533.31;1842999;77;20947;-59
2021/09/01 07:52:50;;;;;;;3.72;2.52;;;;;;;15.76;83.72;97542.42;1851040;77;21552;-61
2021/09/01 07:55:17;;;;;;;29.67;6.08;;;;;;;15.78;84.01;97537.47;1850774;77;21109;-60
2021/09/01 07:57:44;;;;;;;64.42;7.75;;;;;;;15.79;84.19;97542.31;1850906;77;21510;-58
2021/09/01 08:00:12;;;;;;;5.47;4.12;;;;;;;15.78;84.00;97543.45;1841821;77;21033;-59
2021/09/01 08:02:40;;;;;;;4.53;4.12;;;;;;;15.76;84.10;97549.17;1817669;79;20930;-58
2021/09/01 08:05:09;;;;;;;13.25;5.47;;;;;;;15.74;84.29;97551.42;1785118;79;21073;-60
2021/09/01 08:07:36;;;;;;;8.18;5.30;;;;;;;15.74;84.48;97547.37;1832713;77;21006;-62
2021/09/01 08:10:06;;;;;;;5.87;4.97;;;;;;;15.76;84.40;97550.52;1843738;77;21039;-59
2021/09/01 08:12:34;;;;;;;7.60;5.83;;;;;;;15.74;84.57;97550.86;1812779;77;21078;-62
2021/09/01 08:15:02;;;;;;;6.15;5.55;;;;;;;15.71;84.90;97556.13;1833214;77;21509;-60
2021/09/01 08:17:29;;;;;;;6.65;5.50;;;;;;;15.62;84.85;97560.83;1810639;79;20963;-59
2021/09/01 08:20:02;;;;;;;8.55;6.33;;;;;;;15.51;84.87;97563.17;1811067;79;21011;-62
2021/09/01 08:22:29;;;;;;;9.75;6.55;;;;;;;15.41;85.29;97562.19;1812024;79;21186;-60
2021/09/01 08:24:59;;;;;;;7.20;5.90;;;;;;;15.42;85.60;97562.98;1810257;79;21443;-61
2021/09/01 08:27:27;;;;;;;6.90;5.58;;;;;;;15.46;85.78;97566.62;1843779;77;20932;-60
2021/09/01 08:29:54;;;;;;;8.43;5.55;;;;;;;15.49;85.67;97570.02;1839935;77;21370;-59
2021/09/01 08:32:21;;;;;;;6.42;5.67;;;;;;;15.51;85.79;97573.97;1826874;77;20876;-59
2021/09/01 08:34:49;;;;;;;9.38;5.87;;;;;;;15.52;85.63;97574.76;1830177;77;21115;-59
2021/09/01 08:37:18;;;;;;;7.05;6.33;;;;;;;15.50;85.51;97582.38;1840583;77;21027;-60
2021/09/01 08:39:44;;;;;;;6.30;5.42;;;;;;;15.50;85.67;97574.27;1760679;80;21495;-59
2021/09/01 08:42:11;;;;;;;6.08;5.35;;;;;;;15.61;85.49;97576.81;1848454;77;21089;-60
2021/09/01 08:44:38;;;;;;;6.00;5.33;;;;;;;15.70;85.20;97582.91;1843705;77;20912;-60
2021/09/01 08:47:05;;;;;;;8.98;6.00;;;;;;;15.76;84.76;97582.16;1850284;77;20985;-61
2021/09/01 08:49:32;;;;;;;7.72;6.50;;;;;;;15.79;84.70;97582.81;1856889;77;21015;-60
2021/09/01 08:52:00;;;;;;;5.90;5.30;;;;;;;15.82;84.45;97576.20;1856699;77;21074;-61
2021/09/01 08:54:27;;;;;;;7.78;5.08;;;;;;;15.85;84.23;97575.52;1857496;77;20879;-60
2021/09/01 08:56:54;;;;;;;7.20;6.05;;;;;;;15.88;84.16;97580.26;1857197;77;21006;-59
2021/09/01 08:59:20;;;;;;;8.45;6.05;;;;;;;15.96;84.29;97574.55;1856172;77;21664;-60
2021/09/01 09:01:54;;;;;;;6.80;5.42;;;;;;;16.06;83.85;97572.77;1857610;77;21022;-60
2021/09/01 09:04:27;;;;;;;6.80;5.15;;;;;;;16.22;83.68;97579.89;1858258;77;21358;-60
2021/09/01 09:06:59;;;;;;;5.12;4.28;;;;;;;16.47;83.09;97575.83;1858088;77;20855;-61
2021/09/01 09:09:31;;;;;;;8.55;5.65;;;;;;;16.92;82.63;97568.39;1857661;77;20973;-60
2021/09/01 09:12:00;;;;;;;7.55;5.60;;;;;;;17.28;81.87;97566.95;1858303;77;21111;-61
2021/09/01 09:14:33;;;;;;;5.47;5.00;;;;;;;17.50;80.92;97562.34;1847394;77;21025;-62
2021/09/01 09:17:09;;;;;;;5.65;5.15;;;;;;;17.56;79.58;97574.55;1759474;80;20964;-60
2021/09/01 09:20:00;;;;;;;10.63;4.85;;;;;;;17.56;78.57;97573.75;1781728;80;21511;-61
2021/09/01 09:22:32;;;;;;;5.85;4.78;;;;;;;17.50;77.35;97569.70;1772142;80;20984;-61
2021/09/01 09:25:14;;;;;;;6.70;4.53;;;;;;;17.39;77.56;97566.69;1781615;80;21368;-60
2021/09/01 09:27:54;;;;;;;5.85;5.17;;;;;;;17.38;77.79;97565.09;1775398;80;21383;-64
2021/09/01 09:30:24;;;;;;;8.10;5.53;;;;;;;17.41;78.01;97571.19;1772136;80;20881;-60
2021/09/01 09:33:16;;;;;;;6.55;5.95;;;;;;;17.42;78.34;97570.06;1784010;80;21462;-59
2021/09/01 09:36:01;;;;;;;7.28;6.17;;;;;;;17.39;78.19;97572.09;1784630;80;21050;-59
2021/09/01 09:38:41;;;;;;;;;;;;;;;17.23;78.32;97573.96;1787879;80;21078;-60
2021/09/01 09:41:25;;;;;;;6.53;5.80;;;;;;;17.16;79.15;97578.38;1785937;80;20370;-61
2021/09/01 09:43:59;;;;;;;6.40;5.90;;;;;;;17.13;80.10;97579.84;1785090;80;20932;-61
2021/09/01 09:46:27;;;;;;;9.68;6.70;;;;;;;17.17;79.81;97575.31;1784623;80;21474;-60
2021/09/01 09:48:53;;;;;;;7.00;6.35;;;;;;;17.16;79.45;97575.66;1775608;80;21074;-60
2021/09/01 09:51:36;;;;;;;7.22;6.53;;;;;;;17.16;79.26;97577.81;1772417;80;21134;-64
2021/09/01 09:54:21;;;;;;;5.95;5.45;;;;;;;17.27;79.63;97576.20;1829201;78;21348;-60
2021/09/01 09:56:49;;;;;;;6.35;5.30;;;;;;;17.36;78.93;97578.78;1828967;77;21011;-60
2021/09/01 09:59:21;;;;;;;6.65;5.53;;;;;;;17.46;79.10;97570.94;1837701;78;21106;-62
2021/09/01 10:01:49;;;;;;;6.20;5.60;;;;;;;17.60;78.68;97568.66;1835954;77;21111;-58
2021/09/01 10:04:17;;;;;;;6.25;5.65;;;;;;;17.75;77.94;97565.21;1836167;77;21113;-58
2021/09/01 10:06:46;;;;;;;6.22;5.70;;;;;;;17.81;77.97;97566.28;1841616;77;20986;-58
2021/09/01 10:09:13;;;;;;;6.45;5.83;;;;;;;17.78;77.08;97576.69;1841979;77;21514;-59
2021/09/01 10:11:46;;;;;;;5.80;5.20;;;;;;;17.70;77.03;97581.70;1841751;77;20984;-60
2021/09/01 10:14:21;;;;;;;4.37;3.98;;;;;;;17.60;76.97;97575.98;1805037;78;21015;-59
2021/09/01 10:17:01;;;;;;;7.37;3.90;;;;;;;17.58;76.92;97579.05;1817198;77;20908;-59
2021/09/01 10:19:30;;;;;;;3.47;3.17;;;;;;;17.57;77.15;97582.88;1828689;77;20932;-62
2021/09/01 10:22:03;;;;;;;3.72;3.40;;;;;;;17.61;76.55;97586.49;1830692;78;20857;-59
2021/09/01 10:24:37;;;;;;;4.53;3.80;;;;;;;17.64;76.68;97592.55;1846863;77;20876;-61
2021/09/01 10:27:19;;;;;;;4.22;3.70;;;;;;;17.72;77.24;97587.56;1843404;77;20872;-60
2021/09/01 10:29:58;;;;;;;3.50;3.20;;;;;;;17.90;77.84;97592.67;1843471;77;21320;-59
2021/09/01 10:32:43;;;;;;;3.60;3.30;;;;;;;18.06;77.59;97590.77;1843592;77;20868;-59
2021/09/01 10:35:19;;;;;;;5.30;3.62;;;;;;;18.11;76.69;97593.23;1822219;77;20903;-59
2021/09/01 10:37:55;;;;;;;3.65;3.35;;;;;;;18.14;76.98;97596.58;1828174;77;20931;-63
2021/09/01 10:40:31;;;;;;;3.87;2.92;;;;;;;18.15;76.97;97600.87;1810681;79;21008;-60
2021/09/01 10:43:02;;;;;;;4.05;2.92;;;;;;;18.10;76.57;97607.91;1810546;79;21711;-57
2021/09/01 10:45:51;;;;;;;3.17;2.60;;;;;;;17.93;76.92;97606.86;1815067;77;21392;-61
2021/09/01 10:48:18;;;;;;;6.37;3.10;;;;;;;17.78;77.28;97604.36;1757667;80;20964;-62
2021/09/01 10:50:50;;;;;;;3.12;2.83;;;;;;;17.70;78.04;97615.56;1771069;81;20991;-57
2021/09/01 10:53:26;;;;;;;3.25;2.70;;;;;;;17.58;78.25;97610.75;1797539;79;21134;-58
2021/09/01 10:56:13;;;;;;;3.08;2.65;;;;;;;17.52;78.81;97614.26;1779095;79;21119;-60
2021/09/01 10:58:45;;;;;;;2.90;2.50;;;;;;;17.46;78.52;97608.84;1757297;81;21030;-59
2021/09/01 11:01:22;;;;;;;2.60;2.30;;;;;;;17.42;78.22;97606.61;1757527;81;20885;-59
2021/09/01 11:03:53;;;;;;;3.00;2.70;;;;;;;17.39;78.21;97607.29;1768607;80;21006;-60
2021/09/01 11:06:26;;;;;;;5.80;2.60;;;;;;;17.41;78.74;97609.64;1769437;80;21435;-58
2021/09/01 11:09:09;;;;;;;8.25;3.42;;;;;;;17.50;79.25;97607.02;1760875;80;21136;-60
2021/09/01 11:11:52;;;;;;;5.42;3.37;;;;;;;17.61;79.23;97601.39;1793498;78;21010;-60
2021/09/01 11:14:43;;;;;;;5.00;2.90;;;;;;;17.76;79.95;97603.34;1761644;80;21479;-59
2021/09/01 11:17:16;;;;;;;4.22;3.30;;;;;;;17.92;79.62;97602.03;1757901;80;20878;-59
2021/09/01 11:19:45;;;;;;;3.42;2.95;;;;;;;18.08;79.45;97608.27;1803787;79;20924;-60
2021/09/01 11:22:21;;;;;;;3.52;2.90;;;;;;;18.24;78.37;97601.49;1803812;79;21067;-60
2021/09/01 11:25:11;;;;;;;3.70;3.25;;;;;;;18.47;77.85;97606.55;1787228;79;21031;-60
2021/09/01 11:27:56;;;;;;;4.53;2.92;;;;;;;18.85;77.30;97595.84;1777359;80;20991;-57
2021/09/01 11:30:22;;;;;;;3.10;2.77;;;;;;;19.24;75.17;97603.52;1782859;80;20924;-59
2021/09/01 11:32:55;;;;;;;3.58;2.30;;;;;;;19.50;74.89;97598.84;1836481;77;21008;-61
2021/09/01 11:35:23;;;;;;;4.58;2.00;;;;;;;19.59;72.77;97615.70;1833813;77;21126;-61
2021/09/01 11:38:02;;;;;;;9.00;2.72;;;;;;;19.19;71.25;97617.36;1839892;77;21055;-58
2021/09/01 11:40:41;;;;;;;5.03;2.08;;;;;;;18.50;73.10;97624.05;1837827;77;21537;-60
2021/09/01 11:43:12;;;;;;;2.58;1.90;;;;;;;17.83;75.10;97626.34;1831561;77;21074;-60
2021/09/01 11:45:48;;;;;;;4.28;2.00;;;;;;;17.11;77.12;97630.81;1833514;77;21113;-58
2021/09/01 11:48:15;;;;;;;2.30;2.10;;;;;;;16.64;79.33;97632.41;1839691;77;21269;-59
2021/09/01 11:50:45;;;;;;;3.55;2.20;;;;;;;16.25;80.68;97631.88;1842649;77;20857;-59
2021/09/01 11:53:16;;;;;;;6.10;2.90;;;;;;;16.06;81.90;97628.91;1837982;78;20959;-59
2021/09/01 11:55:44;;;;;;;2.98;2.22;;;;;;;15.91;82.49;97636.31;1825206;77;21388;-60
2021/09/01 11:58:16;;;;;;;6.03;2.00;;;;;;;15.83;83.37;97637.17;1831968;77;20988;-59
2021/09/01 12:00:45;;;;;;;3.60;2.25;;;;;;;15.82;84.04;97628.86;1852107;77;20856;-59
2021/09/01 12:03:12;;;;;;;3.90;2.33;;;;;;;15.89;84.70;97628.31;1845928;77;21482;-58
2021/09/01 12:06:08;;;;;;;4.62;2.25;;;;;;;16.03;85.24;97632.86;1834575;76;20878;-59
2021/09/01 12:08:48;;;;;;;3.77;2.47;;;;;;;16.22;85.71;97633.92;1755783;81;21026;-59
2021/09/01 12:11:15;;;;;;;2.77;2.27;;;;;;;16.50;86.19;97630.58;1765625;81;20970;-59
2021/09/01 12:13:45;;;;;;;4.17;2.30;;;;;;;16.75;85.73;97629.48;1769940;81;21729;-59
2021/09/01 12:16:14;;;;;;;2.95;2.50;;;;;;;16.91;85.31;97625.75;1769750;81;20904;-58
2021/09/01 12:18:52;;;;;;;3.72;2.50;;;;;;;17.01;85.21;97628.56;1767187;79;21045;-59
2021/09/01 12:21:20;;;;;;;4.17;2.47;;;;;;;17.11;84.78;97632.16;1770038;79;20923;-66
2021/09/01 12:24:08;;;;;;;3.22;2.33;;;;;;;17.23;84.54;97628.09;1760573;81;21097;-59
2021/09/01 12:27:08;;;;;;;2.33;2.00;;;;;;;17.32;84.54;97627.38;1738889;79;21782;-59
2021/09/01 12:29:43;;;;;;;2.62;2.20;;;;;;;17.37;83.39;97627.15;1737574;82;20923;-58
2021/09/01 12:32:16;;;;;;;2.45;2.00;;;;;;;17.42;83.35;97631.53;1738263;82;21086;-61
2021/09/01 12:34:45;;;;;;;4.08;1.80;;;;;;;17.45;82.30;97626.20;1738994;82;20923;-60
2021/09/01 12:37:28;;;;;;;2.67;2.00;;;;;;;17.46;82.31;97630.50;1763403;81;21110;-59
2021/09/01 12:40:08;;;;;;;1.80;1.60;;;;;;;17.50;81.54;97632.73;1762943;79;21776;-58
2021/09/01 12:42:43;;;;;;;3.67;1.98;;;;;;;17.56;81.85;97632.77;1764137;81;21046;-58
2021/09/01 12:45:19;;;;;;;2.58;2.00;;;;;;;17.65;81.87;97629.91;1765738;81;20927;-58
2021/09/01 12:48:04;;;;;;;;;;;;;;;17.73;81.31;97631.70;1770741;81;21050;-58
2021/09/01 12:50:39;;;;;;;2.52;1.72;;;;;;;17.80;81.29;97628.38;1768955;81;20548;-58
2021/09/01 12:53:06;;;;;;;;;;;;;;;17.87;81.46;97624.52;1771459;81;21109;-60
2021/09/01 12:55:40;;;;;;;3.58;1.55;;;;;;;17.89;80.66;97624.39;1769614;81;20140;-59
2021/09/01 12:58:07;;;;;;;2.10;1.90;;;;;;;17.91;79.82;97624.03;1770132;81;20954;-62
2021/09/01 13:00:37;;;;;;;2.85;1.92;;;;;;;17.88;79.73;97622.01;1767504;81;21477;-59
2021/09/01 13:03:05;;;;;;;2.35;1.98;;;;;;;17.87;79.95;97623.16;1764214;81;20891;-62
2021/09/01 13:05:32;;;;;;;3.45;2.00;;;;;;;17.81;80.02;97621.81;1769519;80;21117;-60
2021/09/01 13:07:59;;;;;;;3.45;1.80;;;;;;;17.75;80.39;97624.00;1834594;76;21538;-62
2021/09/01 13:10:28;;;;;;;5.87;2.30;;;;;;;17.68;80.76;97637.35;1834329;78;21004;-58
2021/09/01 13:12:56;;;;;;;5.55;2.52;;;;;;;17.53;81.71;97643.48;1834499;78;20945;-58
2021/09/01 13:15:24;;;;;;;4.60;2.98;;;;;;;17.33;82.67;97647.92;1835019;78;20867;-58
2021/09/01 13:17:50;;;;;;;4.22;2.98;;;;;;;17.07;83.05;97643.45;1834285;76;21193;-58
2021/09/01 13:20:19;;;;;;;3.00;2.70;;;;;;;16.87;83.16;97650.56;1833319;78;21004;-62
2021/09/01 13:22:48;;;;;;;4.15;3.45;;;;;;;16.71;83.46;97644.81;1833998;78;20922;-61
2021/09/01 13:25:16;;;;;;;3.72;3.37;;;;;;;16.53;83.49;97651.56;1833924;78;21039;-62
2021/09/01 13:27:42;;;;;;;4.60;3.42;;;;;;;16.42;83.98;97657.38;1767259;78;21012;-60
2021/09/01 13:30:15;;;;;;;4.40;3.02;;;;;;;16.33;84.03;97645.87;1834236;76;21029;-61
2021/09/01 13:32:40;;;;;;;3.12;2.80;;;;;;;16.29;84.15;97646.87;1833888;78;20984;-64
2021/09/01 13:35:11;;;;;;;4.37;3.98;;;;;;;16.26;84.40;97646.98;1834702;78;20961;-62
2021/09/01 13:37:39;;;;;;;5.10;4.12;;;;;;;16.25;84.67;97645.40;1831278;78;21472;-61
2021/09/01 13:40:07;;;;;;;3.98;3.62;;;;;;;16.24;85.07;97647.89;1825326;78;21074;-63
2021/09/01 13:42:35;;;;;;;4.55;3.33;;;;;;;16.30;85.24;97646.53;1829825;78;21069;-61
2021/09/01 13:45:04;;;;;;;6.03;2.95;;;;;;;16.38;85.00;97657.03;1824826;78;20917;-60
2021/09/01 13:47:32;;;;;;;4.05;3.17;;;;;;;16.47;85.12;97648.81;1798396;78;20953;-62
2021/09/01 13:49:59;;;;;;;4.20;3.80;;;;;;;16.56;84.65;97640.09;1833222;76;21493;-59
2021/09/01 13:52:25;;;;;;;3.80;3.50;;;;;;;16.66;84.83;97646.37;1832333;78;21519;-60
2021/09/01 13:54:52;;;;;;;6.15;4.03;;;;;;;16.75;84.50;97639.73;1834619;78;21149;-59
2021/09/01 13:57:19;;;;;;;3.67;3.10;;;;;;;16.84;84.30;97638.29;1828669;78;21011;-58
2021/09/01 13:59:47;;;;;;;4.35;3.30;;;;;;;16.90;83.85;97643.13;1865125;76;20936;-58
2021/09/01 14:02:18;;;;;;;4.12;3.45;;;;;;;17.04;83.61;97640.06;1849612;76;21398;-57
2021/09/01 14:04:46;;;;;;;4.35;3.80;;;;;;;17.21;83.53;97645.23;1824752;76;21021;-57
2021/09/01 14:07:13;;;;;;;5.05;3.40;;;;;;;17.45;83.25;97635.69;1834458;78;21710;-57
2021/09/01 14:09:41;;;;;;;4.03;3.40;;;;;;;17.80;82.41;97633.80;1829365;78;20859;-58
2021/09/01 14:12:09;;;;;;;5.08;2.85;;;;;;;18.09;81.84;97640.98;1823241;78;21537;-58
2021/09/01 14:14:37;;;;;;;3.30;2.98;;;;;;;18.28;80.60;97645.73;1826726;76;21001;-60
2021/09/01 14:17:04;;;;;;;3.20;2.98;;;;;;;18.49;79.63;97640.88;1834746;78;20879;-60
2021/09/01 14:19:31;;;;;;;3.33;3.02;;;;;;;18.84;78.99;97639.63;1835010;78;21105;-59
2021/09/01 14:21:58;;;;;;;3.42;3.12;;;;;;;19.04;77.28;97637.97;1834186;78;21511;-57
2021/09/01 14:24:25;;;;;;;3.87;2.98;;;;;;;19.12;76.46;97633.49;1834697;78;21504;-59
2021/09/01 14:26:51;;;;;;;3.08;2.77;;;;;;;19.09;75.90;97637.70;1830975;76;20872;-58
2021/09/01 14:29:18;;;;;;;4.33;2.85;;;;;;;19.06;75.43;97631.61;1825424;78;21009;-59
2021/09/01 14:31:46;;;;;;;3.58;3.05;;;;;;;19.21;75.46;97631.92;1833797;78;21093;-59
2021/09/01 14:34:12;;;;;;;4.55;2.98;;;;;;;19.26;75.42;97631.66;1833562;78;21008;-59
2021/09/01 14:36:39;;;;;;;3.22;2.92;;;;;;;19.23;75.06;97626.36;1834341;78;21464;-58
2021/09/01 14:39:06;;;;;;;3.72;3.10;;;;;;;19.24;74.80;97637.45;1833941;78;21063;-60
2021/09/01 14:41:33;;;;;;;4.12;3.27;;;;;;;19.19;75.22;97630.14;1832967;78;21559;-60
2021/09/01 14:44:00;;;;;;;5.03;3.10;;;;;;;19.10;75.31;97637.13;1833457;78;21065;-60
2021/09/01 14:46:27;;;;;;;3.02;2.72;;;;;;;19.08;75.63;97630.68;1834774;78;20927;-59
